createdAt,value
2023-05-01T00:01:06.064Z,99400.25
2023-05-01T00:03:34.023Z,99400.22
2023-05-01T00:06:03.199Z,99392.47
2023-05-01T00:08:30.863Z,99401.19
2023-05-01T00:11:03.288Z,99394.25
2023-05-01T00:13:31.284Z,99391.66
2023-05-01T00:15:59.030Z,99396.81
2023-05-01T00:18:26.466Z,99392.47
2023-05-01T00:20:53.829Z,99391.63
2023-05-01T00:23:21.564Z,99391.63
2023-05-01T00:25:49.547Z,99390.75
2023-05-01T00:28:18.954Z,99391.59
2023-05-01T00:30:47.129Z,99386.38
2023-05-01T00:33:15.432Z,99386.38
2023-05-01T00:35:46.479Z,99393.34
2023-05-01T00:38:14.218Z,99390.78
2023-05-01T00:40:45.223Z,99385.50
2023-05-01T00:43:12.929Z,99389.81
2023-05-01T00:45:43.867Z,99389.84
2023-05-01T00:48:11.529Z,99387.22
2023-05-01T00:50:39.276Z,99388.06
2023-05-01T00:53:07.259Z,99386.31
2023-05-01T00:55:35.835Z,99390.63
2023-05-01T00:58:03.818Z,99392.34
2023-05-01T01:00:31.473Z,99393.25
2023-05-01T01:02:59.656Z,99395.72
2023-05-01T01:05:28.398Z,99387.09
2023-05-01T01:08:03.156Z,99389.69
2023-05-01T01:10:30.589Z,99399.00
2023-05-01T01:13:01.367Z,99397.38
2023-05-01T01:15:44.844Z,99398.19
2023-05-01T01:18:18.063Z,99392.16
2023-05-01T01:21:07.291Z,99385.97
2023-05-01T01:23:53.566Z,99393.00
2023-05-01T01:26:50.360Z,99392.13
2023-05-01T01:29:41.697Z,99381.47
2023-05-01T01:32:11.267Z,99384.13
2023-05-01T01:34:48.450Z,99378.91
2023-05-01T01:37:28.408Z,99384.53
2023-05-01T01:40:16.410Z,99382.00
2023-05-01T01:42:46.718Z,99381.88
2023-05-01T01:45:23.775Z,99382.84
2023-05-01T01:47:51.736Z,99379.22
2023-05-01T01:50:38.653Z,99380.41
2023-05-01T01:53:07.378Z,99374.44
2023-05-01T01:55:36.410Z,99378.81
2023-05-01T01:58:04.538Z,99377.88
2023-05-01T02:00:34.426Z,99371.16
2023-05-01T02:03:02.654Z,99377.25
2023-05-01T02:05:31.302Z,99374.81
2023-05-01T02:07:59.286Z,99381.78
2023-05-01T02:10:27.863Z,99379.19
2023-05-01T02:12:56.939Z,99368.72
2023-05-01T02:15:26.140Z,99374.91
2023-05-01T02:17:53.993Z,99375.78
2023-05-01T02:20:22.733Z,99374.09
2023-05-01T02:22:53.250Z,99375.87
2023-05-01T02:25:21.241Z,99368.81
2023-05-01T02:27:53.654Z,99373.25
2023-05-01T02:30:21.532Z,99369.47
2023-05-01T02:32:48.943Z,99364.41
2023-05-01T02:35:17.723Z,99369.50
2023-05-01T02:37:45.812Z,99372.25
2023-05-01T02:40:16.972Z,99370.44
2023-05-01T02:42:45.318Z,99374.03
2023-05-01T02:45:21.682Z,99380.03
2023-05-01T02:47:52.010Z,99375.56
2023-05-01T02:50:19.870Z,99373.06
2023-05-01T02:52:47.561Z,99377.44
2023-05-01T02:55:16.622Z,99381.50
2023-05-01T02:57:44.025Z,99375.50
2023-05-01T03:00:14.168Z,99385.06
2023-05-01T03:02:42.375Z,99385.06
2023-05-01T03:05:09.979Z,99389.53
2023-05-01T03:07:37.433Z,99390.50
2023-05-01T03:10:06.316Z,99398.41
2023-05-01T03:12:33.991Z,99394.97
2023-05-01T03:15:01.342Z,99386.25
2023-05-01T03:17:29.670Z,99396.69
2023-05-01T03:19:57.338Z,99394.88
2023-05-01T03:22:24.804Z,99389.63
2023-05-01T03:24:52.442Z,99394.91
2023-05-01T03:27:19.836Z,99403.56
2023-05-01T03:29:47.181Z,99397.38
2023-05-01T03:32:16.504Z,99392.25
2023-05-01T03:34:45.309Z,99395.00
2023-05-01T03:37:13.150Z,99392.31
2023-05-01T03:39:41.510Z,99398.19
2023-05-01T03:42:10.509Z,99393.94
2023-05-01T03:44:38.595Z,99405.06
2023-05-01T03:47:06.782Z,99399.00
2023-05-01T03:49:35.359Z,99401.69
2023-05-01T03:52:02.732Z,99393.78
2023-05-01T03:54:30.471Z,99398.28
2023-05-01T03:56:58.582Z,99396.41
2023-05-01T03:59:26.276Z,99393.75
2023-05-01T04:01:54.000Z,99409.19
2023-05-01T04:04:21.970Z,99398.91
2023-05-01T04:06:50.666Z,99401.53
2023-05-01T04:09:18.196Z,99407.44
2023-05-01T04:11:47.213Z,99406.53
2023-05-01T04:14:14.630Z,99406.69
2023-05-01T04:16:42.115Z,99405.84
2023-05-01T04:19:10.383Z,99399.06
2023-05-01T04:21:39.829Z,99393.09
2023-05-01T04:24:07.182Z,99398.47
2023-05-01T04:26:34.880Z,99390.66
2023-05-01T04:29:02.627Z,99399.44
2023-05-01T04:31:30.068Z,99401.25
2023-05-01T04:33:58.612Z,99398.59
2023-05-01T04:36:26.018Z,99407.28
2023-05-01T04:38:53.408Z,99402.97
2023-05-01T04:41:21.787Z,99402.12
2023-05-01T04:43:49.199Z,99398.63
2023-05-01T04:46:17.318Z,99408.19
2023-05-01T04:48:45.391Z,99408.97
2023-05-01T04:51:12.782Z,99408.00
2023-05-01T04:53:41.263Z,99407.97
2023-05-01T04:56:11.892Z,99402.81
2023-05-01T04:58:39.923Z,99406.31
2023-05-01T05:01:07.658Z,99405.38
2023-05-01T05:03:35.637Z,99405.50
2023-05-01T05:06:03.686Z,99407.19
2023-05-01T05:08:31.444Z,99411.38
2023-05-01T05:11:00.052Z,99403.66
2023-05-01T05:13:28.065Z,99408.91
2023-05-01T05:15:56.068Z,99402.84
2023-05-01T05:18:24.085Z,99407.19
2023-05-01T05:20:51.691Z,99406.34
2023-05-01T05:23:19.042Z,99410.75
2023-05-01T05:25:46.659Z,99411.50
2023-05-01T05:28:14.174Z,99421.00
2023-05-01T05:30:41.949Z,99422.88
2023-05-01T05:33:09.827Z,99416.84
2023-05-01T05:35:37.309Z,99410.62
2023-05-01T05:38:04.754Z,99418.34
2023-05-01T05:40:33.367Z,99421.78
2023-05-01T05:43:00.792Z,99425.06
2023-05-01T05:45:29.238Z,99426.22
2023-05-01T05:47:57.328Z,99420.22
2023-05-01T05:50:25.960Z,99432.47
2023-05-01T05:52:53.336Z,99431.59
2023-05-01T05:55:20.991Z,99433.41
2023-05-01T05:57:50.950Z,99424.72
2023-05-01T06:00:18.983Z,99422.91
2023-05-01T06:02:48.509Z,99423.78
2023-05-01T06:05:16.533Z,99423.75
2023-05-01T06:07:43.932Z,99431.53
2023-05-01T06:10:11.678Z,99438.59
2023-05-01T06:12:42.384Z,99443.88
2023-05-01T06:15:24.789Z,99442.16
2023-05-01T06:17:54.593Z,99445.59
2023-05-01T06:20:22.463Z,99446.47
2023-05-01T06:22:50.169Z,99439.53
2023-05-01T06:25:17.792Z,99441.28
2023-05-01T06:27:45.633Z,99456.06
2023-05-01T06:30:13.283Z,99448.22
2023-05-01T06:32:43.565Z,99452.56
2023-05-01T06:35:11.654Z,99452.56
2023-05-01T06:37:39.181Z,99438.66
2023-05-01T06:40:08.202Z,99444.69
2023-05-01T06:42:37.009Z,99442.09
2023-05-01T06:45:05.433Z,99442.91
2023-05-01T06:47:33.056Z,99442.91
2023-05-01T06:50:03.599Z,99442.88
2023-05-01T06:52:33.935Z,99438.50
2023-05-01T06:55:01.667Z,99436.84
2023-05-01T06:57:29.043Z,99449.88
2023-05-01T06:59:56.787Z,99440.25
2023-05-01T07:02:24.881Z,99441.97
2023-05-01T07:04:53.105Z,99440.12
2023-05-01T07:07:20.512Z,99437.97
2023-05-01T07:09:48.234Z,99435.97
2023-05-01T07:12:15.645Z,99442.88
2023-05-01T07:14:43.174Z,99433.97
2023-05-01T07:17:10.863Z,99443.88
2023-05-01T07:19:38.819Z,99458.78
2023-05-01T07:22:06.300Z,99452.53
2023-05-01T07:24:34.020Z,99446.47
2023-05-01T07:27:01.503Z,99442.69
2023-05-01T07:29:28.881Z,99456.28
2023-05-01T07:31:56.625Z,99451.75
2023-05-01T07:34:24.134Z,99441.62
2023-05-01T07:36:51.529Z,99442.56
2023-05-01T07:39:20.192Z,99441.84
2023-05-01T07:41:47.662Z,99440.97
2023-05-01T07:44:15.065Z,99451.69
2023-05-01T07:46:43.153Z,99449.72
2023-05-01T07:49:10.539Z,99451.38
2023-05-01T07:51:37.916Z,99448.78
2023-05-01T07:54:05.755Z,99451.31
2023-05-01T07:56:33.396Z,99447.31
2023-05-01T07:59:00.736Z,99450.13
2023-05-01T08:01:28.433Z,99453.88
2023-05-01T08:03:56.179Z,99449.50
2023-05-01T08:06:23.688Z,99439.38
2023-05-01T08:08:51.388Z,99448.31
2023-05-01T08:11:19.023Z,99452.00
2023-05-01T08:13:46.402Z,99444.50
2023-05-01T08:16:13.817Z,99443.22
2023-05-01T08:18:41.527Z,99452.87
2023-05-01T08:21:08.924Z,99452.81
2023-05-01T08:23:36.269Z,99462.00
2023-05-01T08:26:03.977Z,99459.13
2023-05-01T08:28:34.580Z,99459.69
2023-05-01T08:31:02.393Z,99445.34
2023-05-01T08:33:30.113Z,99450.69
2023-05-01T08:35:58.213Z,99445.81
2023-05-01T08:38:25.609Z,99456.22
2023-05-01T08:40:54.059Z,99449.06
2023-05-01T08:43:21.546Z,99442.53
2023-05-01T08:45:49.814Z,99441.53
2023-05-01T08:48:20.681Z,99449.12
2023-05-01T08:50:48.533Z,99440.91
2023-05-01T08:53:17.575Z,99450.34
2023-05-01T08:55:48.596Z,99441.38
2023-05-01T08:58:17.641Z,99449.34
2023-05-01T09:00:46.637Z,99449.44
2023-05-01T09:03:14.396Z,99445.72
2023-05-01T09:05:41.987Z,99450.03
2023-05-01T09:08:09.720Z,99451.94
2023-05-01T09:10:43.016Z,99446.38
2023-05-01T09:13:10.734Z,99445.00
2023-05-01T09:15:38.473Z,99437.78
2023-05-01T09:18:06.024Z,99436.50
2023-05-01T09:20:37.439Z,99443.25
2023-05-01T09:23:04.869Z,99442.88
2023-05-01T09:25:32.262Z,99448.72
2023-05-01T09:27:59.954Z,99453.38
2023-05-01T09:30:35.104Z,99445.88
2023-05-01T09:33:13.010Z,99450.09
2023-05-01T09:35:58.595Z,99438.84
2023-05-01T09:38:27.836Z,99443.09
2023-05-01T09:40:57.255Z,99433.97
2023-05-01T09:43:28.838Z,99433.81
2023-05-01T09:46:05.031Z,99435.28
2023-05-01T09:48:34.946Z,99444.22
2023-05-01T09:51:22.303Z,99431.03
2023-05-01T09:53:50.221Z,99424.97
2023-05-01T09:56:18.587Z,99425.97
2023-05-01T09:58:46.620Z,99425.00
2023-05-01T10:01:15.212Z,99422.22
2023-05-01T10:03:44.907Z,99417.72
2023-05-01T10:06:12.465Z,99419.22
2023-05-01T10:08:47.850Z,99417.28
2023-05-01T10:11:15.579Z,99408.91
2023-05-01T10:13:42.930Z,99395.28
2023-05-01T10:16:29.388Z,99396.94
2023-05-01T10:18:58.234Z,99395.47
2023-05-01T10:21:25.990Z,99399.91
2023-05-01T10:23:55.096Z,99389.66
2023-05-01T10:26:22.857Z,99395.22
2023-05-01T10:28:50.267Z,99389.44
2023-05-01T10:31:17.713Z,99388.84
2023-05-01T10:33:46.668Z,99382.00
2023-05-01T10:36:46.296Z,99392.41
2023-05-01T10:39:33.628Z,99390.91
2023-05-01T10:42:16.651Z,99386.34
2023-05-01T10:44:46.281Z,99384.28
2023-05-01T10:47:27.811Z,99371.47
2023-05-01T10:50:09.154Z,99379.69
2023-05-01T10:53:14.644Z,99385.88
2023-05-01T10:55:46.218Z,99376.56
2023-05-01T10:58:33.392Z,99368.72
2023-05-01T11:01:33.518Z,99377.00
2023-05-01T11:04:04.246Z,99366.56
2023-05-01T11:06:32.307Z,99375.59
2023-05-01T11:09:01.007Z,99378.59
2023-05-01T11:11:28.256Z,99376.19
2023-05-01T11:14:02.344Z,99369.06
2023-05-01T11:16:39.444Z,99361.34
2023-05-01T11:19:12.298Z,99363.03
2023-05-01T11:21:41.918Z,99365.50
2023-05-01T11:24:09.720Z,99358.56
2023-05-01T11:26:42.221Z,99352.34
2023-05-01T11:29:11.532Z,99345.37
2023-05-01T11:31:39.535Z,99348.59
2023-05-01T11:34:07.239Z,99341.84
2023-05-01T11:36:51.133Z,99332.41
2023-05-01T11:39:19.602Z,99339.47
2023-05-01T11:41:47.796Z,99348.97
2023-05-01T11:44:16.851Z,99345.06
2023-05-01T11:46:44.391Z,99348.94
2023-05-01T11:49:12.136Z,99335.19
2023-05-01T11:51:39.574Z,99350.12
2023-05-01T11:54:09.508Z,99345.59
2023-05-01T11:56:37.865Z,99341.00
2023-05-01T11:59:20.223Z,99328.94
2023-05-01T12:01:47.888Z,99333.78
2023-05-01T12:04:24.378Z,99332.44
2023-05-01T12:06:51.946Z,99320.31
2023-05-01T12:09:21.827Z,99313.94
2023-05-01T12:11:52.566Z,99314.81
2023-05-01T12:14:24.476Z,99312.84
2023-05-01T12:16:52.016Z,99305.44
2023-05-01T12:19:20.990Z,99309.34
2023-05-01T12:21:49.357Z,99313.38
2023-05-01T12:24:18.901Z,99310.56
2023-05-01T12:26:46.463Z,99313.84
2023-05-01T12:29:14.213Z,99307.06
2023-05-01T12:31:49.353Z,99305.84
2023-05-01T12:34:17.120Z,99304.97
2023-05-01T12:36:53.914Z,99290.63
2023-05-01T12:39:23.491Z,99286.59
2023-05-01T12:41:51.483Z,99294.03
2023-05-01T12:44:30.751Z,99295.34
2023-05-01T12:47:09.851Z,99278.41
2023-05-01T12:49:37.881Z,99294.84
2023-05-01T12:52:07.754Z,99285.59
2023-05-01T12:54:39.720Z,99283.72
2023-05-01T12:57:08.046Z,99282.78
2023-05-01T12:59:37.230Z,99277.34
2023-05-01T13:02:15.959Z,99275.88
2023-05-01T13:04:44.315Z,99275.94
2023-05-01T13:07:16.576Z,99269.87
2023-05-01T13:09:55.952Z,99264.00
2023-05-01T13:12:24.345Z,99261.84
2023-05-01T13:14:52.630Z,99240.13
2023-05-01T13:17:30.106Z,99260.44
2023-05-01T13:20:02.442Z,99257.50
2023-05-01T13:22:34.050Z,99263.97
2023-05-01T13:25:03.872Z,99252.94
2023-05-01T13:27:31.705Z,99251.72
2023-05-01T13:29:59.895Z,99243.59
2023-05-01T13:32:28.290Z,99238.94
2023-05-01T13:34:56.384Z,99239.91
2023-05-01T13:37:23.800Z,99241.81
2023-05-01T13:39:58.162Z,99233.78
2023-05-01T13:42:25.862Z,99229.31
2023-05-01T13:44:56.036Z,99227.38
2023-05-01T13:47:26.521Z,99233.00
2023-05-01T13:49:54.619Z,99230.19
2023-05-01T13:52:21.996Z,99226.16
2023-05-01T13:54:49.365Z,99229.94
2023-05-01T13:57:17.393Z,99217.50
2023-05-01T13:59:46.797Z,99215.81
2023-05-01T14:02:28.393Z,99219.16
2023-05-01T14:04:58.321Z,99224.56
2023-05-01T14:07:27.587Z,99213.66
2023-05-01T14:09:56.701Z,99211.47
2023-05-01T14:12:32.042Z,99207.78
2023-05-01T14:15:01.279Z,99214.94
2023-05-01T14:17:35.697Z,99213.91
2023-05-01T14:20:05.462Z,99204.25
2023-05-01T14:22:44.564Z,99196.78
2023-05-01T14:25:29.786Z,99197.41
2023-05-01T14:27:59.565Z,99203.63
2023-05-01T14:30:29.989Z,99190.75
2023-05-01T14:32:57.795Z,99192.09
2023-05-01T14:35:25.448Z,99185.41
2023-05-01T14:37:52.838Z,99188.78
2023-05-01T14:40:26.476Z,99179.09
2023-05-01T14:42:55.172Z,99181.59
2023-05-01T14:45:22.825Z,99181.00
2023-05-01T14:47:50.448Z,99179.38
2023-05-01T14:50:22.332Z,99174.66
2023-05-01T14:52:57.950Z,99172.28
2023-05-01T14:55:34.753Z,99166.88
2023-05-01T14:58:02.557Z,99168.88
2023-05-01T15:00:29.950Z,99165.69
2023-05-01T15:02:58.786Z,99166.53
2023-05-01T15:05:28.263Z,99172.66
2023-05-01T15:08:00.512Z,99168.91
2023-05-01T15:10:28.942Z,99167.94
2023-05-01T15:12:56.383Z,99172.28
2023-05-01T15:15:24.059Z,99166.94
2023-05-01T15:17:51.829Z,99168.31
2023-05-01T15:20:19.662Z,99166.69
2023-05-01T15:22:47.110Z,99161.13
2023-05-01T15:25:16.359Z,99159.41
2023-05-01T15:27:45.745Z,99160.97
2023-05-01T15:30:14.986Z,99161.69
2023-05-01T15:32:42.936Z,99164.22
2023-05-01T15:35:10.512Z,99150.59
2023-05-01T15:37:37.891Z,99154.44
2023-05-01T15:40:06.641Z,99156.09
2023-05-01T15:42:34.063Z,99153.56
2023-05-01T15:45:03.428Z,99147.13
2023-05-01T15:47:31.873Z,99160.00
2023-05-01T15:49:59.545Z,99165.50
2023-05-01T15:52:27.157Z,99158.88
2023-05-01T15:54:56.335Z,99153.56
2023-05-01T15:57:23.822Z,99152.56
2023-05-01T15:59:53.953Z,99149.16
2023-05-01T16:02:22.637Z,99151.50
2023-05-01T16:04:52.025Z,99153.44
2023-05-01T16:07:21.501Z,99157.84
2023-05-01T16:09:49.220Z,99157.78
2023-05-01T16:12:16.921Z,99157.16
2023-05-01T16:14:44.452Z,99160.09
2023-05-01T16:17:11.890Z,99151.72
2023-05-01T16:19:39.703Z,99145.41
2023-05-01T16:22:07.882Z,99145.81
2023-05-01T16:24:36.484Z,99147.53
2023-05-01T16:27:04.475Z,99147.25
2023-05-01T16:29:35.039Z,99146.06
2023-05-01T16:32:04.689Z,99143.22
2023-05-01T16:34:32.746Z,99134.03
2023-05-01T16:37:00.164Z,99138.72
2023-05-01T16:39:28.133Z,99136.06
2023-05-01T16:41:55.927Z,99137.75
2023-05-01T16:44:25.159Z,99131.69
2023-05-01T16:46:57.454Z,99141.72
2023-05-01T16:49:29.749Z,99136.66
2023-05-01T16:51:58.544Z,99146.53
2023-05-01T16:54:32.054Z,99145.50
2023-05-01T16:56:59.804Z,99150.66
2023-05-01T16:59:30.578Z,99146.34
2023-05-01T17:01:58.125Z,99143.06
2023-05-01T17:04:26.050Z,99138.03
2023-05-01T17:06:56.041Z,99143.44
2023-05-01T17:12:17.374Z,99141.50
2023-05-01T17:14:44.886Z,99147.13
2023-05-01T17:17:12.331Z,99142.38
2023-05-01T17:19:40.244Z,99135.31
2023-05-01T17:22:07.819Z,99144.31
2023-05-01T17:24:36.379Z,99139.34
2023-05-01T17:27:04.143Z,99138.19
2023-05-01T17:29:32.336Z,99133.22
2023-05-01T17:31:59.836Z,99127.47
2023-05-01T17:34:27.514Z,99127.94
2023-05-01T17:36:57.269Z,99129.06
2023-05-01T17:39:27.507Z,99129.00
2023-05-01T17:41:55.519Z,99130.50
2023-05-01T17:44:22.990Z,99124.63
2023-05-01T17:46:50.662Z,99132.34
2023-05-01T17:49:18.786Z,99125.44
2023-05-01T17:51:46.169Z,99123.03
2023-05-01T17:54:15.317Z,99125.06
2023-05-01T17:56:44.039Z,99131.94
2023-05-01T17:59:11.485Z,99138.00
2023-05-01T18:01:39.107Z,99138.22
2023-05-01T18:04:08.795Z,99127.28
2023-05-01T18:06:36.706Z,99136.41
2023-05-01T18:09:07.128Z,99131.69
2023-05-01T18:11:36.078Z,99136.34
2023-05-01T18:14:04.287Z,99135.13
2023-05-01T18:16:31.749Z,99133.19
2023-05-01T18:18:59.408Z,99127.75
2023-05-01T18:21:27.609Z,99135.56
2023-05-01T18:23:56.243Z,99136.56
2023-05-01T18:26:27.074Z,99139.66
2023-05-01T18:28:54.898Z,99136.50
2023-05-01T18:31:24.287Z,99142.81
2023-05-01T18:33:53.159Z,99144.16
2023-05-01T18:36:21.248Z,99144.38
2023-05-01T18:38:49.080Z,99147.03
2023-05-01T18:41:17.107Z,99150.44
2023-05-01T18:43:45.113Z,99148.72
2023-05-01T18:46:13.676Z,99143.62
2023-05-01T18:48:42.981Z,99154.34
2023-05-01T18:51:11.468Z,99158.09
2023-05-01T18:53:39.633Z,99146.91
2023-05-01T18:56:09.912Z,99158.16
2023-05-01T18:58:37.908Z,99157.28
2023-05-01T19:01:07.113Z,99163.97
2023-05-01T19:03:40.051Z,99169.00
2023-05-01T19:06:11.196Z,99167.34
2023-05-01T19:08:39.498Z,99172.44
2023-05-01T19:11:08.004Z,99167.19
2023-05-01T19:13:36.052Z,99171.31
2023-05-01T19:16:04.961Z,99170.72
2023-05-01T19:18:33.950Z,99172.00
2023-05-01T19:21:03.495Z,99167.84
2023-05-01T19:23:35.356Z,99173.34
2023-05-01T19:26:07.564Z,99162.31
2023-05-01T19:28:37.202Z,99161.22
2023-05-01T19:31:08.747Z,99168.28
2023-05-01T19:33:41.587Z,99169.75
2023-05-01T19:36:09.848Z,99171.31
2023-05-01T19:38:38.255Z,99163.25
2023-05-01T19:41:07.096Z,99171.47
2023-05-01T19:43:35.166Z,99169.16
2023-05-01T19:46:04.924Z,99163.22
2023-05-01T19:48:33.509Z,99171.56
2023-05-01T19:51:01.713Z,99170.50
2023-05-01T19:53:31.563Z,99170.44
2023-05-01T19:56:02.622Z,99169.19
2023-05-01T19:58:31.061Z,99173.56
2023-05-01T20:01:02.567Z,99175.88
2023-05-01T20:03:30.927Z,99176.63
2023-05-01T20:05:59.837Z,99172.59
2023-05-01T20:08:27.645Z,99173.53
2023-05-01T20:10:57.815Z,99169.53
2023-05-01T20:13:25.298Z,99170.53
2023-05-01T20:15:52.699Z,99175.91
2023-05-01T20:18:21.253Z,99178.72
2023-05-01T20:20:49.115Z,99174.19
2023-05-01T20:23:17.967Z,99179.84
2023-05-01T20:25:49.343Z,99181.59
2023-05-01T20:28:17.734Z,99179.19
2023-05-01T20:30:46.275Z,99173.06
2023-05-01T20:33:15.069Z,99175.75
2023-05-01T20:35:43.195Z,99171.41
2023-05-01T20:38:11.201Z,99178.03
2023-05-01T20:40:40.426Z,99178.28
2023-05-01T20:43:08.526Z,99173.81
2023-05-01T20:45:36.170Z,99179.78
2023-05-01T20:48:04.001Z,99178.69
2023-05-01T20:50:31.808Z,99179.69
2023-05-01T20:52:59.245Z,99176.94
2023-05-01T20:55:28.098Z,99183.75
2023-05-01T20:57:55.872Z,99188.13
2023-05-01T21:00:23.244Z,99187.06
2023-05-01T21:02:52.810Z,99186.25
2023-05-01T21:05:20.394Z,99195.22
2023-05-01T21:07:48.380Z,99191.69
2023-05-01T21:10:16.653Z,99184.53
2023-05-01T21:12:44.153Z,99197.91
2023-05-01T21:15:12.780Z,99199.50
2023-05-01T21:17:41.067Z,99191.25
2023-05-01T21:20:19.108Z,99192.91
2023-05-01T21:22:48.469Z,99196.97
2023-05-01T21:25:24.422Z,99201.75
2023-05-01T21:27:52.198Z,99195.66
2023-05-01T21:30:37.849Z,99195.00
2023-05-01T21:33:07.462Z,99199.09
2023-05-01T21:35:34.912Z,99202.25
2023-05-01T21:38:04.251Z,99198.34
2023-05-01T21:40:36.373Z,99196.66
2023-05-01T21:43:05.637Z,99205.78
2023-05-01T21:45:36.649Z,99204.88
2023-05-01T21:48:05.531Z,99200.19
2023-05-01T21:50:36.016Z,99196.13
2023-05-01T21:53:03.432Z,99200.78
2023-05-01T21:55:31.521Z,99201.78
2023-05-01T21:57:59.284Z,99202.28
2023-05-01T22:00:27.744Z,99200.69
2023-05-01T22:02:56.471Z,99199.03
2023-05-01T22:05:24.094Z,99202.09
2023-05-01T22:07:52.348Z,99208.94
2023-05-01T22:10:20.442Z,99205.50
2023-05-01T22:12:49.355Z,99211.50
2023-05-01T22:15:16.844Z,99205.00
2023-05-01T22:17:45.342Z,99207.66
2023-05-01T22:20:12.976Z,99197.00
2023-05-01T22:22:41.503Z,99198.53
2023-05-01T22:25:10.134Z,99199.59
2023-05-01T22:27:37.904Z,99191.75
2023-05-01T22:30:05.804Z,99201.28
2023-05-01T22:32:33.931Z,99191.59
2023-05-01T22:35:01.507Z,99190.59
2023-05-01T22:37:29.907Z,99194.25
2023-05-01T22:39:58.012Z,99197.59
2023-05-01T22:42:25.757Z,99195.19
2023-05-01T22:44:53.148Z,99189.97
2023-05-01T22:47:20.797Z,99188.16
2023-05-01T22:49:48.218Z,99192.69
2023-05-01T22:52:15.593Z,99189.19
2023-05-01T22:54:43.226Z,99191.69
2023-05-01T22:57:10.580Z,99182.94
2023-05-01T22:59:39.596Z,99186.44
2023-05-01T23:02:07.298Z,99180.84
2023-05-01T23:04:34.705Z,99185.81
2023-05-01T23:07:02.223Z,99190.09
2023-05-01T23:09:30.653Z,99192.94
2023-05-01T23:11:58.035Z,99187.75
2023-05-01T23:14:25.838Z,99185.31
2023-05-01T23:16:53.590Z,99183.34
2023-05-01T23:19:22.962Z,99181.81
2023-05-01T23:21:51.622Z,99180.72
2023-05-01T23:24:49.676Z,99185.34
2023-05-01T23:27:18.729Z,99186.19
2023-05-01T23:29:54.611Z,99190.59
2023-05-01T23:32:31.255Z,99183.66
2023-05-01T23:35:12.925Z,99181.84
2023-05-01T23:37:40.296Z,99182.88
2023-05-01T23:40:09.454Z,99184.31
2023-05-01T23:42:38.222Z,99183.41
2023-05-01T23:45:07.694Z,99182.69
2023-05-01T23:47:35.777Z,99181.66
2023-05-01T23:50:03.562Z,99186.06
2023-05-01T23:52:31.028Z,99180.09
2023-05-01T23:54:58.724Z,99183.66
2023-05-01T23:57:26.154Z,99180.09
2023-05-01T23:59:53.710Z,99178.16
